createdAt,value
2018-12-18T00:01:34.841Z,6.00
2018-12-18T00:04:01.810Z,5.90
2018-12-18T00:06:28.748Z,5.80
2018-12-18T00:08:55.721Z,5.80
2018-12-18T00:11:22.770Z,5.90
2018-12-18T00:13:49.720Z,5.80
2018-12-18T00:16:16.680Z,5.80
2018-12-18T00:18:43.643Z,5.80
2018-12-18T00:21:10.606Z,5.80
2018-12-18T00:23:37.561Z,5.70
2018-12-18T00:26:04.577Z,5.80
2018-12-18T00:28:31.520Z,5.90
2018-12-18T00:30:58.464Z,5.80
2018-12-18T00:33:25.423Z,5.90
2018-12-18T00:35:52.406Z,6.00
2018-12-18T00:38:19.349Z,5.90
2018-12-18T00:40:46.341Z,5.80
2018-12-18T00:43:13.292Z,5.90
2018-12-18T00:45:40.331Z,5.80
2018-12-18T00:48:07.307Z,5.90
2018-12-18T00:50:34.255Z,6.00
2018-12-18T00:53:01.221Z,5.90
2018-12-18T00:55:28.233Z,6.00
2018-12-18T00:57:55.177Z,5.90
2018-12-18T01:00:22.153Z,6.00
2018-12-18T01:02:49.350Z,6.10
2018-12-18T01:05:16.281Z,6.00
2018-12-18T01:07:43.240Z,6.00
2018-12-18T01:10:10.252Z,6.00
2018-12-18T01:12:37.212Z,6.00
2018-12-18T01:15:04.273Z,6.00
2018-12-18T01:17:31.249Z,6.00
2018-12-18T01:19:58.197Z,6.00
2018-12-18T01:22:25.164Z,6.10
2018-12-18T01:24:52.145Z,5.90
2018-12-18T01:27:19.108Z,6.00
2018-12-18T01:29:46.061Z,5.90
2018-12-18T01:32:13.020Z,5.80
2018-12-18T01:34:39.972Z,5.80
2018-12-18T01:37:06.903Z,5.70
2018-12-18T01:39:33.910Z,5.80
2018-12-18T01:42:00.867Z,5.70
2018-12-18T01:44:27.835Z,5.70
2018-12-18T01:46:54.792Z,5.70
2018-12-18T01:49:21.760Z,5.60
2018-12-18T01:51:48.704Z,5.60
2018-12-18T01:54:15.743Z,5.60
2018-12-18T01:56:42.684Z,5.70
2018-12-18T01:59:09.614Z,5.60
2018-12-18T02:01:36.585Z,5.70
2018-12-18T02:04:06.172Z,5.60
2018-12-18T02:06:30.951Z,5.60
2018-12-18T02:08:57.924Z,5.60
2018-12-18T02:11:24.891Z,5.70
2018-12-18T02:13:51.827Z,5.60
2018-12-18T02:16:18.793Z,5.60
2018-12-18T02:18:45.757Z,5.60
2018-12-18T02:21:12.704Z,5.60
2018-12-18T02:23:39.668Z,5.60
2018-12-18T02:26:06.629Z,5.60
2018-12-18T02:28:33.573Z,5.70
2018-12-18T02:31:00.554Z,5.80
2018-12-18T02:33:27.492Z,5.90
2018-12-18T02:35:54.452Z,5.90
2018-12-18T02:38:21.522Z,6.00
2018-12-18T02:40:48.449Z,5.90
2018-12-18T02:43:15.404Z,5.80
2018-12-18T02:45:42.360Z,5.90
2018-12-18T02:48:09.307Z,5.80
2018-12-18T02:50:36.257Z,5.90
2018-12-18T02:53:03.225Z,5.90
2018-12-18T02:55:30.160Z,5.90
2018-12-18T02:57:57.121Z,5.80
2018-12-18T03:00:24.102Z,5.90
2018-12-18T03:02:51.038Z,5.80
2018-12-18T03:05:18.363Z,5.80
2018-12-18T03:07:45.397Z,5.80
2018-12-18T03:10:12.346Z,5.80
2018-12-18T03:12:39.268Z,5.80
2018-12-18T03:15:06.248Z,5.80
2018-12-18T03:17:33.193Z,5.80
2018-12-18T03:20:00.147Z,5.90
2018-12-18T03:22:27.130Z,5.80
2018-12-18T03:24:54.097Z,5.50
2018-12-18T03:27:21.101Z,5.70
2018-12-18T03:29:48.113Z,5.60
2018-12-18T03:32:18.183Z,5.60
2018-12-18T03:34:45.148Z,5.60
2018-12-18T03:37:12.114Z,5.60
2018-12-18T03:39:39.065Z,5.70
2018-12-18T03:42:06.013Z,5.60
2018-12-18T03:44:32.988Z,5.60
2018-12-18T03:46:59.928Z,5.60
2018-12-18T03:49:26.939Z,5.60
2018-12-18T03:51:54.005Z,5.50
2018-12-18T03:54:20.968Z,5.50
2018-12-18T03:56:47.911Z,5.50
2018-12-18T03:59:14.872Z,5.40
2018-12-18T04:01:41.823Z,5.30
2018-12-18T04:04:08.772Z,5.50
2018-12-18T04:06:36.115Z,5.30
2018-12-18T04:09:05.050Z,5.30
2018-12-18T04:11:31.996Z,5.30
2018-12-18T04:13:58.938Z,5.30
2018-12-18T04:16:25.878Z,5.30
2018-12-18T04:18:52.824Z,5.20
2018-12-18T04:21:19.796Z,5.30
2018-12-18T04:23:46.781Z,5.30
2018-12-18T04:26:13.749Z,5.20
2018-12-18T04:28:40.709Z,5.30
2018-12-18T04:31:07.685Z,5.20
2018-12-18T04:33:34.643Z,5.20
2018-12-18T04:36:01.625Z,5.10
2018-12-18T04:38:28.603Z,5.00
2018-12-18T04:40:55.565Z,5.10
2018-12-18T04:43:22.532Z,5.10
2018-12-18T04:45:49.506Z,5.00
2018-12-18T04:48:16.473Z,4.90
2018-12-18T04:50:43.439Z,4.80
2018-12-18T04:53:10.390Z,4.80
2018-12-18T04:55:37.369Z,4.90
2018-12-18T04:58:04.325Z,4.70
2018-12-18T05:00:31.281Z,4.50
2018-12-18T05:02:58.239Z,4.40
2018-12-18T05:05:25.229Z,4.30
2018-12-18T05:07:52.513Z,4.40
2018-12-18T05:10:19.451Z,4.30
2018-12-18T05:12:46.416Z,4.40
2018-12-18T05:15:13.359Z,4.30
2018-12-18T05:17:40.293Z,4.20
2018-12-18T05:20:07.276Z,4.10
2018-12-18T05:22:34.219Z,4.00
2018-12-18T05:25:01.165Z,4.00
2018-12-18T05:27:28.152Z,4.00
2018-12-18T05:29:55.107Z,3.90
2018-12-18T05:32:22.052Z,3.90
2018-12-18T05:34:49.032Z,3.90
2018-12-18T05:37:15.989Z,3.70
2018-12-18T05:39:42.919Z,3.70
2018-12-18T05:42:10.268Z,3.70
2018-12-18T05:44:37.422Z,3.70
2018-12-18T05:47:04.497Z,4.20
2018-12-18T05:49:31.440Z,3.60
2018-12-18T05:51:58.388Z,3.70
2018-12-18T05:54:25.333Z,3.70
2018-12-18T05:56:52.387Z,3.70
2018-12-18T05:59:19.329Z,3.50
2018-12-18T06:01:46.272Z,3.80
2018-12-18T06:04:13.240Z,3.80
2018-12-18T06:06:40.526Z,3.80
2018-12-18T06:09:07.916Z,3.80
2018-12-18T06:11:35.132Z,3.90
2018-12-18T06:14:02.140Z,3.80
2018-12-18T06:16:29.111Z,3.80
2018-12-18T06:18:56.107Z,3.80
2018-12-18T06:21:23.121Z,3.80
2018-12-18T06:23:50.086Z,3.70
2018-12-18T06:26:17.029Z,3.70
2018-12-18T06:28:43.988Z,3.80
2018-12-18T06:31:11.079Z,3.20
2018-12-18T06:33:38.076Z,3.70
2018-12-18T06:36:05.041Z,3.50
2018-12-18T06:38:31.991Z,3.50
2018-12-18T06:40:58.945Z,3.40
2018-12-18T06:43:25.917Z,3.30
2018-12-18T06:45:52.876Z,3.20
2018-12-18T06:48:19.863Z,3.30
2018-12-18T06:50:46.885Z,3.30
2018-12-18T06:53:13.861Z,3.40
2018-12-18T06:55:40.821Z,3.40
2018-12-18T06:58:07.776Z,3.30
2018-12-18T07:00:34.717Z,3.20
2018-12-18T07:03:01.681Z,3.20
2018-12-18T07:05:28.624Z,3.20
2018-12-18T07:07:57.513Z,3.20
2018-12-18T07:10:22.948Z,3.20
2018-12-18T07:12:49.891Z,2.50
2018-12-18T07:15:16.841Z,3.00
2018-12-18T07:17:43.797Z,3.00
2018-12-18T07:20:10.733Z,2.90
2018-12-18T07:22:37.667Z,2.80
2018-12-18T07:25:04.721Z,2.90
2018-12-18T07:27:31.658Z,2.90
2018-12-18T07:29:58.604Z,2.80
2018-12-18T07:32:25.564Z,2.90
2018-12-18T07:34:52.533Z,2.80
2018-12-18T07:37:19.463Z,2.80
2018-12-18T07:39:46.414Z,2.90
2018-12-18T07:42:13.360Z,2.90
2018-12-18T07:44:40.284Z,2.70
2018-12-18T07:47:07.232Z,2.70
2018-12-18T07:49:34.179Z,2.70
2018-12-18T07:52:01.124Z,2.70
2018-12-18T07:54:28.076Z,2.80
2018-12-18T07:56:55.074Z,2.80
2018-12-18T07:59:22.014Z,2.90
2018-12-18T08:01:48.964Z,2.80
2018-12-18T08:04:15.905Z,2.80
2018-12-18T08:06:42.829Z,2.90
2018-12-18T08:09:09.812Z,3.00
2018-12-18T08:11:37.333Z,3.00
2018-12-18T08:14:04.353Z,3.00
2018-12-18T08:16:31.297Z,3.10
2018-12-18T08:18:58.234Z,3.20
2018-12-18T08:21:25.172Z,3.40
2018-12-18T08:23:52.137Z,3.30
2018-12-18T08:26:19.064Z,3.40
2018-12-18T08:28:46.150Z,3.60
2018-12-18T08:31:13.198Z,5.10
2018-12-18T08:33:40.132Z,5.30
2018-12-18T08:36:07.064Z,6.50
2018-12-18T08:38:34.003Z,7.60
2018-12-18T08:41:00.930Z,8.70
2018-12-18T08:43:27.904Z,9.60
2018-12-18T08:45:54.861Z,10.50
2018-12-18T08:48:21.816Z,11.30
2018-12-18T08:50:48.756Z,11.80
2018-12-18T08:53:15.712Z,12.50
2018-12-18T08:55:42.685Z,12.70
2018-12-18T08:58:09.612Z,13.40
2018-12-18T09:00:36.617Z,13.60
2018-12-18T09:03:03.611Z,13.40
2018-12-18T09:05:30.561Z,13.70
2018-12-18T09:07:57.529Z,14.00
2018-12-18T09:10:24.468Z,14.40
2018-12-18T09:12:51.845Z,14.80
2018-12-18T09:15:24.625Z,14.60
2018-12-18T09:17:51.588Z,14.90
2018-12-18T09:20:18.531Z,14.70
2018-12-18T09:22:45.530Z,14.60
2018-12-18T09:25:12.481Z,15.60
2018-12-18T09:27:39.421Z,15.80
2018-12-18T09:30:09.121Z,16.30
2018-12-18T09:32:36.152Z,16.00
2018-12-18T09:35:03.195Z,16.30
2018-12-18T09:37:30.183Z,16.60
2018-12-18T09:39:57.115Z,17.40
2018-12-18T09:42:29.921Z,17.00
2018-12-18T09:44:56.888Z,17.30
2018-12-18T09:47:23.824Z,17.90
2018-12-18T09:49:50.762Z,17.90
2018-12-18T09:52:17.721Z,17.70
2018-12-18T09:54:44.681Z,18.60
2018-12-18T09:57:17.244Z,18.50
2018-12-18T09:59:44.233Z,18.50
2018-12-18T10:02:11.177Z,18.00
2018-12-18T10:04:38.125Z,18.00
2018-12-18T10:07:05.091Z,16.80
2018-12-18T10:09:32.024Z,15.30
2018-12-18T10:11:58.967Z,13.50
2018-12-18T10:14:26.469Z,11.80
2018-12-18T10:16:53.400Z,10.60
2018-12-18T10:19:20.333Z,10.00
2018-12-18T10:21:47.329Z,9.50
2018-12-18T10:24:14.248Z,8.90
2018-12-18T10:26:41.185Z,8.80
2018-12-18T10:29:08.150Z,8.70
2018-12-18T10:31:35.085Z,8.40
2018-12-18T10:34:02.012Z,8.00
2018-12-18T10:36:28.961Z,7.70
2018-12-18T10:38:55.920Z,7.60
2018-12-18T10:41:22.869Z,7.50
2018-12-18T10:43:49.821Z,7.50
2018-12-18T10:46:16.772Z,8.10
2018-12-18T10:48:43.751Z,8.90
2018-12-18T10:51:10.723Z,9.50
2018-12-18T10:53:37.669Z,10.00
2018-12-18T10:56:04.601Z,10.10
2018-12-18T10:58:31.571Z,10.80
2018-12-18T11:01:04.885Z,12.20
2018-12-18T11:03:31.332Z,13.20
2018-12-18T11:05:58.325Z,14.50
2018-12-18T11:08:25.271Z,16.00
2018-12-18T11:10:52.305Z,17.10
2018-12-18T11:13:19.299Z,18.00
2018-12-18T11:15:46.433Z,19.10
2018-12-18T11:18:13.423Z,19.50
2018-12-18T11:20:40.401Z,19.80
2018-12-18T11:23:07.349Z,20.70
2018-12-18T11:25:34.420Z,20.50
2018-12-18T11:28:01.392Z,20.30
2018-12-18T11:30:28.341Z,20.70
2018-12-18T11:32:55.280Z,21.00
2018-12-18T11:35:22.249Z,20.90
2018-12-18T11:37:49.212Z,21.00
2018-12-18T11:40:16.193Z,21.60
2018-12-18T11:42:43.147Z,21.50
2018-12-18T11:45:10.079Z,21.00
2018-12-18T11:47:37.016Z,21.30
2018-12-18T11:50:04.240Z,21.10
2018-12-18T11:52:31.185Z,21.50
2018-12-18T11:54:58.168Z,21.40
2018-12-18T11:57:25.125Z,21.20
2018-12-18T11:59:52.069Z,21.50
2018-12-18T12:02:19.084Z,21.60
2018-12-18T12:04:46.065Z,20.70
2018-12-18T12:07:13.130Z,20.20
2018-12-18T12:09:40.084Z,20.20
2018-12-18T12:12:07.041Z,20.20
2018-12-18T12:14:34.031Z,20.70
2018-12-18T12:17:01.654Z,21.00
2018-12-18T12:19:28.101Z,21.00
2018-12-18T12:21:55.069Z,21.20
2018-12-18T12:24:22.016Z,21.00
2018-12-18T12:26:48.980Z,21.20
2018-12-18T12:29:15.925Z,21.40
2018-12-18T12:31:42.952Z,21.80
2018-12-18T12:34:09.938Z,22.20
2018-12-18T12:36:36.877Z,21.20
2018-12-18T12:39:06.859Z,21.10
2018-12-18T12:41:33.866Z,20.30
2018-12-18T12:44:00.854Z,19.40
2018-12-18T12:46:27.800Z,18.80
2018-12-18T12:48:55.524Z,17.80
2018-12-18T12:51:22.925Z,16.90
2018-12-18T12:53:49.853Z,15.90
2018-12-18T12:56:16.837Z,15.30
2018-12-18T12:58:43.844Z,14.40
2018-12-18T13:01:10.795Z,13.70
2018-12-18T13:03:37.756Z,13.10
2018-12-18T13:06:04.701Z,12.60
2018-12-18T13:08:31.633Z,12.30
2018-12-18T13:10:58.590Z,11.90
2018-12-18T13:13:25.555Z,11.70
2018-12-18T13:15:52.484Z,11.50
2018-12-18T13:18:20.040Z,11.20
2018-12-18T13:20:46.996Z,11.10
2018-12-18T13:23:14.353Z,10.80
2018-12-18T13:25:41.329Z,10.50
2018-12-18T13:28:08.274Z,10.50
2018-12-18T13:30:35.228Z,10.30
2018-12-18T13:33:02.190Z,10.20
2018-12-18T13:35:29.145Z,10.10
2018-12-18T13:37:56.088Z,10.10
2018-12-18T13:40:23.065Z,10.00
2018-12-18T13:42:50.028Z,10.10
2018-12-18T13:45:16.973Z,10.00
2018-12-18T13:47:44.016Z,10.00
2018-12-18T13:50:10.946Z,10.00
2018-12-18T13:52:37.884Z,9.90
2018-12-18T13:55:04.855Z,9.80
2018-12-18T13:57:31.832Z,9.80
2018-12-18T13:59:58.801Z,9.20
2018-12-18T14:02:25.779Z,9.60
2018-12-18T14:04:52.704Z,9.70
2018-12-18T14:07:19.671Z,9.50
2018-12-18T14:09:46.646Z,9.60
2018-12-18T14:12:13.605Z,9.30
2018-12-18T14:14:40.574Z,9.30
2018-12-18T14:17:07.531Z,9.20
2018-12-18T14:19:34.865Z,9.20
2018-12-18T14:22:01.840Z,9.10
2018-12-18T14:24:28.816Z,9.00
2018-12-18T14:26:55.829Z,9.00
2018-12-18T14:29:22.782Z,8.90
2018-12-18T14:31:49.773Z,8.80
2018-12-18T14:34:16.849Z,8.60
2018-12-18T14:36:43.929Z,8.60
2018-12-18T14:39:11.069Z,8.50
2018-12-18T14:41:38.053Z,8.50
2018-12-18T14:44:05.331Z,8.60
2018-12-18T14:46:32.325Z,8.50
2018-12-18T14:48:59.335Z,8.30
2018-12-18T14:51:26.279Z,8.10
2018-12-18T14:53:53.282Z,8.20
2018-12-18T14:56:20.247Z,8.10
2018-12-18T14:58:47.205Z,7.90
2018-12-18T15:01:14.198Z,7.80
2018-12-18T15:03:41.149Z,7.70
2018-12-18T15:06:08.157Z,7.70
2018-12-18T15:08:35.125Z,7.60
2018-12-18T15:11:02.105Z,7.60
2018-12-18T15:13:29.934Z,7.50
2018-12-18T15:15:56.899Z,7.40
2018-12-18T15:18:23.870Z,7.30
2018-12-18T15:20:51.262Z,7.20
2018-12-18T15:23:18.293Z,7.20
2018-12-18T15:25:45.286Z,7.10
2018-12-18T15:28:12.229Z,7.00
2018-12-18T15:30:39.236Z,6.90
2018-12-18T15:33:06.186Z,6.90
2018-12-18T15:35:33.152Z,6.80
2018-12-18T15:38:00.137Z,6.80
2018-12-18T15:40:27.114Z,5.80
2018-12-18T15:42:54.045Z,6.70
2018-12-18T15:45:21.017Z,6.60
2018-12-18T15:47:48.030Z,6.50
2018-12-18T15:50:14.984Z,6.50
2018-12-18T15:52:41.958Z,6.50
2018-12-18T15:55:08.915Z,6.20
2018-12-18T15:57:35.885Z,6.20
2018-12-18T16:00:03.601Z,6.20
2018-12-18T16:02:30.588Z,6.00
2018-12-18T16:04:57.553Z,6.00
2018-12-18T16:07:24.540Z,6.00
2018-12-18T16:09:51.507Z,6.20
2018-12-18T16:12:18.501Z,5.90
2018-12-18T16:14:45.485Z,5.90
2018-12-18T16:17:12.436Z,5.90
2018-12-18T16:19:39.390Z,5.90
2018-12-18T16:22:07.040Z,5.70
2018-12-18T16:24:33.941Z,5.60
2018-12-18T16:27:00.904Z,5.60
2018-12-18T16:29:27.864Z,5.60
2018-12-18T16:31:54.804Z,5.60
2018-12-18T16:34:21.760Z,5.60
2018-12-18T16:36:48.753Z,5.50
2018-12-18T16:39:15.712Z,5.40
2018-12-18T16:41:42.652Z,5.40
2018-12-18T16:44:09.644Z,5.30
2018-12-18T16:46:36.600Z,5.40
2018-12-18T16:49:03.552Z,5.00
2018-12-18T16:51:30.511Z,5.30
2018-12-18T16:53:57.470Z,5.20
2018-12-18T16:56:24.413Z,5.10
2018-12-18T16:58:51.426Z,5.10
2018-12-18T17:01:18.373Z,5.00
2018-12-18T17:03:45.321Z,5.00
2018-12-18T17:06:12.290Z,5.00
2018-12-18T17:08:39.220Z,4.90
2018-12-18T17:11:06.249Z,4.80
2018-12-18T17:13:33.212Z,4.70
2018-12-18T17:16:00.161Z,4.70
2018-12-18T17:18:27.102Z,4.70
2018-12-18T17:20:54.050Z,4.70
2018-12-18T17:23:21.610Z,4.60
2018-12-18T17:25:48.565Z,4.60
2018-12-18T17:28:15.600Z,4.10
2018-12-18T17:30:42.544Z,4.70
2018-12-18T17:33:09.513Z,4.60
2018-12-18T17:35:36.460Z,4.50
2018-12-18T17:38:03.426Z,4.50
2018-12-18T17:40:30.673Z,4.60
2018-12-18T17:42:57.622Z,4.60
2018-12-18T17:45:24.627Z,4.60
2018-12-18T17:47:51.589Z,4.60
2018-12-18T17:50:18.632Z,4.70
2018-12-18T17:52:45.579Z,4.50
2018-12-18T17:55:12.542Z,4.60
2018-12-18T17:57:39.492Z,4.60
2018-12-18T18:00:06.897Z,4.60
2018-12-18T18:02:33.841Z,4.70
2018-12-18T18:05:00.822Z,4.50
2018-12-18T18:07:27.760Z,4.60
2018-12-18T18:09:54.755Z,4.60
2018-12-18T18:12:21.795Z,4.50
2018-12-18T18:14:48.764Z,4.50
2018-12-18T18:17:15.756Z,4.50
2018-12-18T18:19:42.740Z,4.50
2018-12-18T18:22:09.886Z,4.50
2018-12-18T18:24:37.915Z,4.60
2018-12-18T18:27:04.875Z,4.50
2018-12-18T18:29:31.865Z,4.40
2018-12-18T18:31:58.916Z,4.90
2018-12-18T18:34:25.957Z,4.40
2018-12-18T18:36:52.908Z,4.30
2018-12-18T18:39:19.848Z,4.30
2018-12-18T18:41:46.796Z,4.20
2018-12-18T18:44:13.751Z,4.30
2018-12-18T18:46:40.716Z,4.20
2018-12-18T18:49:07.870Z,4.20
2018-12-18T18:51:35.246Z,4.10
2018-12-18T18:54:02.175Z,4.20
2018-12-18T18:56:29.172Z,4.20
2018-12-18T18:58:56.117Z,4.20
2018-12-18T19:01:23.056Z,4.10
2018-12-18T19:03:50.072Z,4.10
2018-12-18T19:06:17.008Z,4.10
2018-12-18T19:08:43.954Z,4.20
2018-12-18T19:11:10.932Z,4.10
2018-12-18T19:13:37.883Z,4.10
2018-12-18T19:16:04.833Z,4.10
2018-12-18T19:18:31.789Z,4.10
2018-12-18T19:20:58.740Z,3.90
2018-12-18T19:23:25.697Z,4.10
2018-12-18T19:25:52.831Z,3.80
2018-12-18T19:28:19.796Z,3.70
2018-12-18T19:30:46.718Z,3.50
2018-12-18T19:33:13.702Z,3.60
2018-12-18T19:35:40.637Z,3.60
2018-12-18T19:38:07.749Z,3.50
2018-12-18T19:40:35.129Z,3.50
2018-12-18T19:43:02.199Z,3.50
2018-12-18T19:45:29.490Z,3.40
2018-12-18T19:47:56.476Z,3.40
2018-12-18T19:50:23.550Z,3.60
2018-12-18T19:52:50.585Z,3.40
2018-12-18T19:55:17.673Z,3.50
2018-12-18T19:57:44.705Z,3.50
2018-12-18T20:00:11.640Z,3.50
2018-12-18T20:02:38.764Z,3.40
2018-12-18T20:05:05.850Z,3.50
2018-12-18T20:07:33.045Z,3.40
2018-12-18T20:10:00.375Z,3.40
2018-12-18T20:12:27.376Z,3.40
2018-12-18T20:14:54.324Z,3.40
2018-12-18T20:17:21.272Z,3.60
2018-12-18T20:19:48.213Z,3.40
2018-12-18T20:22:15.169Z,3.30
2018-12-18T20:24:42.133Z,3.40
2018-12-18T20:27:09.656Z,3.40
2018-12-18T20:29:36.638Z,3.40
2018-12-18T20:32:03.660Z,3.50
2018-12-18T20:34:30.625Z,3.20
2018-12-18T20:36:57.552Z,3.50
2018-12-18T20:39:24.521Z,3.50
2018-12-18T20:41:51.498Z,3.40
2018-12-18T20:44:18.481Z,3.30
2018-12-18T20:46:45.506Z,3.30
2018-12-18T20:49:12.457Z,3.40
2018-12-18T20:51:39.400Z,3.40
2018-12-18T20:54:06.407Z,3.40
2018-12-18T20:56:33.356Z,3.30
2018-12-18T20:59:00.316Z,3.30
2018-12-18T21:01:28.593Z,3.30
2018-12-18T21:03:55.097Z,3.30
2018-12-18T21:06:22.121Z,3.30
2018-12-18T21:08:49.164Z,3.20
2018-12-18T21:11:16.187Z,3.30
2018-12-18T21:13:43.369Z,3.30
2018-12-18T21:16:10.406Z,3.30
2018-12-18T21:18:37.441Z,3.30
2018-12-18T21:21:04.492Z,3.20
2018-12-18T21:23:31.540Z,3.20
2018-12-18T21:25:58.582Z,3.30
2018-12-18T21:28:26.051Z,3.40
2018-12-18T21:30:53.101Z,3.40
2018-12-18T21:33:20.129Z,3.40
2018-12-18T21:35:47.141Z,3.40
2018-12-18T21:38:14.188Z,3.40
2018-12-18T21:40:41.204Z,3.30
2018-12-18T21:43:08.226Z,3.30
2018-12-18T21:45:35.278Z,3.30
2018-12-18T21:48:02.293Z,3.40
2018-12-18T21:50:29.319Z,3.40
2018-12-18T21:52:56.355Z,3.30
2018-12-18T21:55:23.398Z,3.30
2018-12-18T21:57:50.446Z,3.30
2018-12-18T22:00:17.474Z,3.30
2018-12-18T22:02:44.484Z,3.30
2018-12-18T22:05:11.519Z,3.30
2018-12-18T22:07:38.576Z,3.20
2018-12-18T22:10:06.685Z,3.20
2018-12-18T22:12:33.697Z,3.20
2018-12-18T22:15:00.731Z,3.20
2018-12-18T22:17:27.793Z,3.30
2018-12-18T22:19:54.868Z,3.30
2018-12-18T22:22:21.896Z,3.30
2018-12-18T22:24:48.985Z,3.30
2018-12-18T22:27:15.932Z,3.30
2018-12-18T22:29:43.365Z,3.30
2018-12-18T22:32:10.322Z,3.30
2018-12-18T22:34:37.276Z,3.20
2018-12-18T22:37:04.231Z,3.10
2018-12-18T22:39:31.193Z,3.00
2018-12-18T22:41:58.140Z,3.10
2018-12-18T22:44:25.078Z,3.10
2018-12-18T22:46:52.021Z,3.00
2018-12-18T22:49:18.984Z,2.90
2018-12-18T22:51:45.990Z,2.90
2018-12-18T22:54:12.923Z,2.90
2018-12-18T22:56:39.880Z,2.90
2018-12-18T22:59:07.019Z,2.90
2018-12-18T23:01:43.820Z,2.90
2018-12-18T23:04:11.251Z,2.90
2018-12-18T23:06:38.197Z,2.90
2018-12-18T23:09:06.514Z,2.80
2018-12-18T23:11:33.552Z,2.80
2018-12-18T23:14:00.579Z,2.90
2018-12-18T23:16:27.525Z,2.90
2018-12-18T23:18:54.501Z,2.90
2018-12-18T23:21:21.461Z,3.00
2018-12-18T23:23:48.402Z,3.00
2018-12-18T23:26:15.378Z,3.10
2018-12-18T23:28:42.376Z,3.00
2018-12-18T23:31:09.685Z,3.00
2018-12-18T23:33:36.785Z,3.10
2018-12-18T23:36:03.716Z,3.10
2018-12-18T23:38:30.685Z,3.00
2018-12-18T23:40:57.646Z,3.00
2018-12-18T23:43:24.587Z,3.00
2018-12-18T23:45:51.602Z,3.00
2018-12-18T23:48:18.540Z,3.20
2018-12-18T23:50:45.504Z,3.00
2018-12-18T23:53:12.453Z,2.80
2018-12-18T23:55:39.407Z,2.80
2018-12-18T23:58:06.337Z,2.80
